sensor_id;sensor_type;location;lat;lon;timestamp;P1;durP1;ratioP1;P2;durP2;ratioP2
65187;SDS011;51775;51.148;6.950;2023-04-06T00:02:01;1.85;;;1.10;;
65187;SDS011;51775;51.148;6.950;2023-04-06T00:04:26;2.47;;;1.10;;
65187;SDS011;51775;51.148;6.950;2023-04-06T00:06:51;1.67;;;1.00;;
65187;SDS011;51775;51.148;6.950;2023-04-06T00:09:16;1.77;;;1.05;;
65187;SDS011;51775;51.148;6.950;2023-04-06T00:11:42;2.00;;;1.10;;
65187;SDS011;51775;51.148;6.950;2023-04-06T00:14:07;1.60;;;0.90;;
65187;SDS011;51775;51.148;6.950;2023-04-06T00:16:32;1.83;;;1.10;;
65187;SDS011;51775;51.148;6.950;2023-04-06T00:18:58;1.42;;;0.90;;
65187;SDS011;51775;51.148;6.950;2023-04-06T00:21:23;2.17;;;1.50;;
65187;SDS011;51775;51.148;6.950;2023-04-06T00:23:48;2.92;;;1.30;;
65187;SDS011;51775;51.148;6.950;2023-04-06T00:26:13;2.25;;;1.50;;
65187;SDS011;51775;51.148;6.950;2023-04-06T00:28:39;2.45;;;1.40;;
65187;SDS011;51775;51.148;6.950;2023-04-06T00:31:04;2.20;;;1.30;;
65187;SDS011;51775;51.148;6.950;2023-04-06T00:33:29;2.00;;;1.30;;
65187;SDS011;51775;51.148;6.950;2023-04-06T00:35:55;2.33;;;1.30;;
65187;SDS011;51775;51.148;6.950;2023-04-06T00:38:21;2.00;;;1.20;;
65187;SDS011;51775;51.148;6.950;2023-04-06T00:40:46;1.90;;;1.10;;
65187;SDS011;51775;51.148;6.950;2023-04-06T00:43:12;2.13;;;1.30;;
65187;SDS011;51775;51.148;6.950;2023-04-06T00:45:38;1.95;;;1.20;;
65187;SDS011;51775;51.148;6.950;2023-04-06T00:48:04;1.95;;;1.10;;
65187;SDS011;51775;51.148;6.950;2023-04-06T00:50:30;1.30;;;1.00;;
65187;SDS011;51775;51.148;6.950;2023-04-06T00:52:55;2.03;;;1.10;;
65187;SDS011;51775;51.148;6.950;2023-04-06T00:55:21;1.60;;;1.00;;
65187;SDS011;51775;51.148;6.950;2023-04-06T00:57:46;1.77;;;1.02;;
65187;SDS011;51775;51.148;6.950;2023-04-06T01:00:11;1.75;;;1.05;;
65187;SDS011;51775;51.148;6.950;2023-04-06T01:02:37;2.17;;;1.25;;
65187;SDS011;51775;51.148;6.950;2023-04-06T01:05:03;1.58;;;1.02;;
65187;SDS011;51775;51.148;6.950;2023-04-06T01:07:29;1.63;;;1.00;;
65187;SDS011;51775;51.148;6.950;2023-04-06T01:09:54;1.55;;;0.98;;
65187;SDS011;51775;51.148;6.950;2023-04-06T01:12:19;2.10;;;1.08;;
65187;SDS011;51775;51.148;6.950;2023-04-06T01:14:45;1.27;;;0.90;;
65187;SDS011;51775;51.148;6.950;2023-04-06T01:17:10;1.95;;;1.10;;
65187;SDS011;51775;51.148;6.950;2023-04-06T01:19:36;1.60;;;1.00;;
65187;SDS011;51775;51.148;6.950;2023-04-06T01:22:01;2.03;;;1.15;;
65187;SDS011;51775;51.148;6.950;2023-04-06T01:24:27;1.60;;;1.00;;
65187;SDS011;51775;51.148;6.950;2023-04-06T01:26:52;1.83;;;1.15;;
65187;SDS011;51775;51.148;6.950;2023-04-06T01:29:17;1.90;;;1.00;;
65187;SDS011;51775;51.148;6.950;2023-04-06T01:31:43;1.55;;;0.98;;
65187;SDS011;51775;51.148;6.950;2023-04-06T01:34:08;1.45;;;1.00;;
65187;SDS011;51775;51.148;6.950;2023-04-06T01:36:33;1.52;;;1.00;;
65187;SDS011;51775;51.148;6.950;2023-04-06T01:38:58;1.90;;;1.20;;
65187;SDS011;51775;51.148;6.950;2023-04-06T01:41:24;2.00;;;1.20;;
65187;SDS011;51775;51.148;6.950;2023-04-06T01:43:49;2.63;;;1.40;;
65187;SDS011;51775;51.148;6.950;2023-04-06T01:46:15;2.35;;;1.30;;
65187;SDS011;51775;51.148;6.950;2023-04-06T01:48:41;1.85;;;1.30;;
65187;SDS011;51775;51.148;6.950;2023-04-06T01:51:06;2.67;;;1.50;;
65187;SDS011;51775;51.148;6.950;2023-04-06T01:53:32;2.50;;;1.52;;
65187;SDS011;51775;51.148;6.950;2023-04-06T01:55:57;1.98;;;1.20;;
65187;SDS011;51775;51.148;6.950;2023-04-06T01:58:22;1.50;;;1.00;;
65187;SDS011;51775;51.148;6.950;2023-04-06T02:00:48;1.80;;;1.00;;
65187;SDS011;51775;51.148;6.950;2023-04-06T02:03:13;1.50;;;1.00;;
65187;SDS011;51775;51.148;6.950;2023-04-06T02:05:38;1.67;;;1.00;;
65187;SDS011;51775;51.148;6.950;2023-04-06T02:08:04;1.65;;;0.93;;
65187;SDS011;51775;51.148;6.950;2023-04-06T02:10:29;2.13;;;1.10;;
65187;SDS011;51775;51.148;6.950;2023-04-06T02:12:55;1.40;;;0.90;;
65187;SDS011;51775;51.148;6.950;2023-04-06T02:15:20;1.92;;;1.00;;
65187;SDS011;51775;51.148;6.950;2023-04-06T02:17:45;1.88;;;1.08;;
65187;SDS011;51775;51.148;6.950;2023-04-06T02:20:11;1.60;;;1.00;;
65187;SDS011;51775;51.148;6.950;2023-04-06T02:22:36;1.60;;;0.90;;
65187;SDS011;51775;51.148;6.950;2023-04-06T02:25:01;1.30;;;0.77;;
65187;SDS011;51775;51.148;6.950;2023-04-06T02:27:27;2.25;;;1.00;;
65187;SDS011;51775;51.148;6.950;2023-04-06T02:29:52;1.33;;;0.90;;
65187;SDS011;51775;51.148;6.950;2023-04-06T02:32:17;1.85;;;1.10;;
65187;SDS011;51775;51.148;6.950;2023-04-06T02:34:42;1.75;;;1.08;;
65187;SDS011;51775;51.148;6.950;2023-04-06T02:37:08;1.38;;;0.88;;
65187;SDS011;51775;51.148;6.950;2023-04-06T02:39:33;1.48;;;1.08;;
65187;SDS011;51775;51.148;6.950;2023-04-06T02:41:58;1.38;;;0.93;;
65187;SDS011;51775;51.148;6.950;2023-04-06T02:44:24;1.30;;;0.90;;
65187;SDS011;51775;51.148;6.950;2023-04-06T02:46:49;1.40;;;0.90;;
65187;SDS011;51775;51.148;6.950;2023-04-06T02:49:14;1.63;;;1.02;;
65187;SDS011;51775;51.148;6.950;2023-04-06T02:51:39;1.48;;;1.00;;
65187;SDS011;51775;51.148;6.950;2023-04-06T02:54:05;1.73;;;1.00;;
65187;SDS011;51775;51.148;6.950;2023-04-06T02:56:30;2.08;;;1.27;;
65187;SDS011;51775;51.148;6.950;2023-04-06T02:58:55;1.70;;;1.10;;
65187;SDS011;51775;51.148;6.950;2023-04-06T03:01:21;2.25;;;1.30;;
65187;SDS011;51775;51.148;6.950;2023-04-06T03:03:46;1.63;;;1.10;;
65187;SDS011;51775;51.148;6.950;2023-04-06T03:06:11;1.90;;;1.20;;
65187;SDS011;51775;51.148;6.950;2023-04-06T03:08:37;2.03;;;1.30;;
65187;SDS011;51775;51.148;6.950;2023-04-06T03:11:02;1.85;;;1.20;;
65187;SDS011;51775;51.148;6.950;2023-04-06T03:13:27;1.42;;;1.00;;
65187;SDS011;51775;51.148;6.950;2023-04-06T03:15:53;1.67;;;1.00;;
65187;SDS011;51775;51.148;6.950;2023-04-06T03:18:22;2.20;;;1.10;;
65187;SDS011;51775;51.148;6.950;2023-04-06T03:20:48;1.88;;;1.05;;
65187;SDS011;51775;51.148;6.950;2023-04-06T03:23:13;1.10;;;0.80;;
65187;SDS011;51775;51.148;6.950;2023-04-06T03:25:38;1.50;;;1.00;;
65187;SDS011;51775;51.148;6.950;2023-04-06T03:28:04;1.50;;;0.98;;
65187;SDS011;51775;51.148;6.950;2023-04-06T03:30:29;1.48;;;1.00;;
65187;SDS011;51775;51.148;6.950;2023-04-06T03:32:54;1.20;;;0.90;;
65187;SDS011;51775;51.148;6.950;2023-04-06T03:35:20;1.40;;;0.93;;
65187;SDS011;51775;51.148;6.950;2023-04-06T03:37:45;1.20;;;0.80;;
65187;SDS011;51775;51.148;6.950;2023-04-06T03:40:10;1.38;;;0.80;;
65187;SDS011;51775;51.148;6.950;2023-04-06T03:42:36;1.55;;;1.00;;
65187;SDS011;51775;51.148;6.950;2023-04-06T03:45:01;1.30;;;0.80;;
65187;SDS011;51775;51.148;6.950;2023-04-06T03:47:26;1.45;;;0.82;;
65187;SDS011;51775;51.148;6.950;2023-04-06T03:49:51;1.60;;;0.90;;
65187;SDS011;51775;51.148;6.950;2023-04-06T03:52:17;1.67;;;0.90;;
65187;SDS011;51775;51.148;6.950;2023-04-06T03:54:42;1.65;;;1.00;;
65187;SDS011;51775;51.148;6.950;2023-04-06T03:57:08;1.45;;;0.90;;
65187;SDS011;51775;51.148;6.950;2023-04-06T03:59:33;1.75;;;1.00;;
65187;SDS011;51775;51.148;6.950;2023-04-06T04:01:58;1.45;;;0.82;;
65187;SDS011;51775;51.148;6.950;2023-04-06T04:04:24;1.55;;;0.95;;
65187;SDS011;51775;51.148;6.950;2023-04-06T04:06:49;1.52;;;0.88;;
65187;SDS011;51775;51.148;6.950;2023-04-06T04:09:14;1.67;;;1.00;;
65187;SDS011;51775;51.148;6.950;2023-04-06T04:11:39;1.70;;;1.15;;
65187;SDS011;51775;51.148;6.950;2023-04-06T04:14:05;1.70;;;1.10;;
65187;SDS011;51775;51.148;6.950;2023-04-06T04:16:30;1.65;;;1.20;;
65187;SDS011;51775;51.148;6.950;2023-04-06T04:18:55;2.00;;;1.17;;
65187;SDS011;51775;51.148;6.950;2023-04-06T04:21:21;1.60;;;1.00;;
65187;SDS011;51775;51.148;6.950;2023-04-06T04:23:46;1.80;;;1.17;;
65187;SDS011;51775;51.148;6.950;2023-04-06T04:26:11;1.50;;;1.10;;
65187;SDS011;51775;51.148;6.950;2023-04-06T04:28:37;1.90;;;1.20;;
65187;SDS011;51775;51.148;6.950;2023-04-06T04:31:02;1.50;;;0.90;;
65187;SDS011;51775;51.148;6.950;2023-04-06T04:33:27;1.10;;;0.80;;
65187;SDS011;51775;51.148;6.950;2023-04-06T04:35:52;1.50;;;0.90;;
65187;SDS011;51775;51.148;6.950;2023-04-06T04:38:18;1.77;;;0.90;;
65187;SDS011;51775;51.148;6.950;2023-04-06T04:40:43;1.40;;;0.90;;
65187;SDS011;51775;51.148;6.950;2023-04-06T04:43:08;1.27;;;0.80;;
65187;SDS011;51775;51.148;6.950;2023-04-06T04:45:34;1.23;;;0.73;;
65187;SDS011;51775;51.148;6.950;2023-04-06T04:47:59;1.00;;;0.70;;
65187;SDS011;51775;51.148;6.950;2023-04-06T04:50:24;1.45;;;0.88;;
65187;SDS011;51775;51.148;6.950;2023-04-06T04:52:50;1.60;;;1.00;;
65187;SDS011;51775;51.148;6.950;2023-04-06T04:55:15;0.95;;;0.73;;
65187;SDS011;51775;51.148;6.950;2023-04-06T04:57:40;1.40;;;0.90;;
65187;SDS011;51775;51.148;6.950;2023-04-06T05:00:06;1.58;;;0.90;;
65187;SDS011;51775;51.148;6.950;2023-04-06T05:02:31;1.50;;;0.90;;
65187;SDS011;51775;51.148;6.950;2023-04-06T05:04:57;1.75;;;0.80;;
65187;SDS011;51775;51.148;6.950;2023-04-06T05:07:22;1.10;;;0.88;;
65187;SDS011;51775;51.148;6.950;2023-04-06T05:09:47;1.23;;;0.85;;
65187;SDS011;51775;51.148;6.950;2023-04-06T05:12:13;1.77;;;1.00;;
65187;SDS011;51775;51.148;6.950;2023-04-06T05:14:38;1.63;;;0.88;;
65187;SDS011;51775;51.148;6.950;2023-04-06T05:17:04;1.08;;;0.80;;
65187;SDS011;51775;51.148;6.950;2023-04-06T05:19:29;1.50;;;0.90;;
65187;SDS011;51775;51.148;6.950;2023-04-06T05:21:55;1.42;;;0.75;;
65187;SDS011;51775;51.148;6.950;2023-04-06T05:24:20;1.92;;;1.00;;
65187;SDS011;51775;51.148;6.950;2023-04-06T05:26:45;1.33;;;0.90;;
65187;SDS011;51775;51.148;6.950;2023-04-06T05:29:19;1.90;;;1.10;;
65187;SDS011;51775;51.148;6.950;2023-04-06T05:31:44;2.45;;;1.35;;
65187;SDS011;51775;51.148;6.950;2023-04-06T05:34:10;1.90;;;1.20;;
65187;SDS011;51775;51.148;6.950;2023-04-06T05:36:35;2.45;;;1.40;;
65187;SDS011;51775;51.148;6.950;2023-04-06T05:39:00;1.92;;;1.40;;
65187;SDS011;51775;51.148;6.950;2023-04-06T05:41:26;1.70;;;1.10;;
65187;SDS011;51775;51.148;6.950;2023-04-06T05:43:51;2.33;;;1.48;;
65187;SDS011;51775;51.148;6.950;2023-04-06T05:46:16;1.83;;;1.30;;
65187;SDS011;51775;51.148;6.950;2023-04-06T05:48:41;2.25;;;1.30;;
65187;SDS011;51775;51.148;6.950;2023-04-06T05:51:07;2.08;;;1.30;;
65187;SDS011;51775;51.148;6.950;2023-04-06T05:53:32;2.13;;;1.30;;
65187;SDS011;51775;51.148;6.950;2023-04-06T05:56:01;2.42;;;1.50;;
65187;SDS011;51775;51.148;6.950;2023-04-06T05:58:27;2.03;;;1.30;;
65187;SDS011;51775;51.148;6.950;2023-04-06T06:00:59;4.28;;;1.38;;
65187;SDS011;51775;51.148;6.950;2023-04-06T06:03:24;2.22;;;1.40;;
65187;SDS011;51775;51.148;6.950;2023-04-06T06:05:50;2.25;;;1.40;;
65187;SDS011;51775;51.148;6.950;2023-04-06T06:08:15;2.25;;;1.20;;
65187;SDS011;51775;51.148;6.950;2023-04-06T06:10:40;2.00;;;1.30;;
65187;SDS011;51775;51.148;6.950;2023-04-06T06:13:06;2.30;;;1.30;;
65187;SDS011;51775;51.148;6.950;2023-04-06T06:15:31;2.30;;;1.20;;
65187;SDS011;51775;51.148;6.950;2023-04-06T06:17:56;1.98;;;1.20;;
65187;SDS011;51775;51.148;6.950;2023-04-06T06:20:21;2.20;;;1.35;;
65187;SDS011;51775;51.148;6.950;2023-04-06T06:22:47;1.77;;;1.17;;
65187;SDS011;51775;51.148;6.950;2023-04-06T06:25:12;1.70;;;1.20;;
65187;SDS011;51775;51.148;6.950;2023-04-06T06:27:38;2.15;;;1.20;;
65187;SDS011;51775;51.148;6.950;2023-04-06T06:30:03;2.38;;;1.48;;
65187;SDS011;51775;51.148;6.950;2023-04-06T06:32:29;2.05;;;1.30;;
65187;SDS011;51775;51.148;6.950;2023-04-06T06:34:54;2.30;;;1.30;;
65187;SDS011;51775;51.148;6.950;2023-04-06T06:37:19;2.00;;;1.30;;
65187;SDS011;51775;51.148;6.950;2023-04-06T06:39:45;2.25;;;1.30;;
65187;SDS011;51775;51.148;6.950;2023-04-06T06:42:10;3.55;;;1.40;;
65187;SDS011;51775;51.148;6.950;2023-04-06T06:44:35;2.42;;;1.30;;
65187;SDS011;51775;51.148;6.950;2023-04-06T06:47:02;2.10;;;1.40;;
65187;SDS011;51775;51.148;6.950;2023-04-06T06:49:27;2.20;;;1.38;;
65187;SDS011;51775;51.148;6.950;2023-04-06T06:51:52;2.28;;;1.30;;
65187;SDS011;51775;51.148;6.950;2023-04-06T06:54:17;2.38;;;1.40;;
65187;SDS011;51775;51.148;6.950;2023-04-06T06:56:43;2.25;;;1.30;;
65187;SDS011;51775;51.148;6.950;2023-04-06T06:59:08;1.92;;;1.30;;
65187;SDS011;51775;51.148;6.950;2023-04-06T07:01:33;2.22;;;1.30;;
65187;SDS011;51775;51.148;6.950;2023-04-06T07:03:59;2.83;;;1.30;;
65187;SDS011;51775;51.148;6.950;2023-04-06T07:06:24;3.03;;;1.33;;
65187;SDS011;51775;51.148;6.950;2023-04-06T07:08:49;2.05;;;1.30;;
65187;SDS011;51775;51.148;6.950;2023-04-06T07:11:21;3.20;;;1.40;;
65187;SDS011;51775;51.148;6.950;2023-04-06T07:13:46;1.80;;;1.20;;
65187;SDS011;51775;51.148;6.950;2023-04-06T07:16:11;1.70;;;1.20;;
65187;SDS011;51775;51.148;6.950;2023-04-06T07:18:36;2.10;;;1.33;;
65187;SDS011;51775;51.148;6.950;2023-04-06T07:21:02;1.63;;;1.10;;
65187;SDS011;51775;51.148;6.950;2023-04-06T07:23:27;2.20;;;1.33;;
65187;SDS011;51775;51.148;6.950;2023-04-06T07:25:53;2.33;;;1.40;;
65187;SDS011;51775;51.148;6.950;2023-04-06T07:28:18;2.65;;;1.40;;
65187;SDS011;51775;51.148;6.950;2023-04-06T07:30:43;2.22;;;1.30;;
65187;SDS011;51775;51.148;6.950;2023-04-06T07:33:08;2.50;;;1.40;;
65187;SDS011;51775;51.148;6.950;2023-04-06T07:35:34;2.50;;;1.42;;
65187;SDS011;51775;51.148;6.950;2023-04-06T07:37:59;2.22;;;1.40;;
65187;SDS011;51775;51.148;6.950;2023-04-06T07:40:25;2.38;;;1.40;;
65187;SDS011;51775;51.148;6.950;2023-04-06T07:42:50;3.22;;;1.38;;
65187;SDS011;51775;51.148;6.950;2023-04-06T07:45:16;2.45;;;1.35;;
65187;SDS011;51775;51.148;6.950;2023-04-06T07:47:43;2.45;;;1.45;;
65187;SDS011;51775;51.148;6.950;2023-04-06T07:50:09;2.45;;;1.30;;
65187;SDS011;51775;51.148;6.950;2023-04-06T07:52:34;1.75;;;1.15;;
65187;SDS011;51775;51.148;6.950;2023-04-06T07:55:00;3.08;;;1.40;;
65187;SDS011;51775;51.148;6.950;2023-04-06T07:57:25;3.53;;;1.33;;
65187;SDS011;51775;51.148;6.950;2023-04-06T07:59:50;2.42;;;1.40;;
65187;SDS011;51775;51.148;6.950;2023-04-06T08:02:16;2.13;;;1.23;;
65187;SDS011;51775;51.148;6.950;2023-04-06T08:04:41;2.80;;;1.35;;
65187;SDS011;51775;51.148;6.950;2023-04-06T08:07:07;2.30;;;1.30;;
65187;SDS011;51775;51.148;6.950;2023-04-06T08:09:33;1.85;;;1.17;;
65187;SDS011;51775;51.148;6.950;2023-04-06T08:11:58;2.35;;;1.20;;
65187;SDS011;51775;51.148;6.950;2023-04-06T08:14:23;1.95;;;1.30;;
65187;SDS011;51775;51.148;6.950;2023-04-06T08:16:49;2.17;;;1.20;;
65187;SDS011;51775;51.148;6.950;2023-04-06T08:19:14;2.92;;;1.20;;
65187;SDS011;51775;51.148;6.950;2023-04-06T08:21:39;1.92;;;1.25;;
65187;SDS011;51775;51.148;6.950;2023-04-06T08:24:04;2.67;;;1.10;;
65187;SDS011;51775;51.148;6.950;2023-04-06T08:26:30;2.33;;;1.40;;
65187;SDS011;51775;51.148;6.950;2023-04-06T08:28:55;1.80;;;1.20;;
65187;SDS011;51775;51.148;6.950;2023-04-06T08:31:21;2.25;;;1.20;;
65187;SDS011;51775;51.148;6.950;2023-04-06T08:33:46;2.17;;;1.23;;
65187;SDS011;51775;51.148;6.950;2023-04-06T08:36:12;2.65;;;1.50;;
65187;SDS011;51775;51.148;6.950;2023-04-06T08:38:39;2.22;;;1.40;;
65187;SDS011;51775;51.148;6.950;2023-04-06T08:41:10;2.20;;;1.30;;
65187;SDS011;51775;51.148;6.950;2023-04-06T08:44:09;2.47;;;1.10;;
65187;SDS011;51775;51.148;6.950;2023-04-06T08:46:29;2.20;;;1.30;;
65187;SDS011;51775;51.148;6.950;2023-04-06T08:48:55;2.92;;;1.48;;
65187;SDS011;51775;51.148;6.950;2023-04-06T08:51:25;2.72;;;1.40;;
65187;SDS011;51775;51.148;6.950;2023-04-06T08:53:55;2.10;;;1.40;;
65187;SDS011;51775;51.148;6.950;2023-04-06T08:56:22;3.35;;;1.40;;
65187;SDS011;51775;51.148;6.950;2023-04-06T08:58:48;2.58;;;1.50;;
65187;SDS011;51775;51.148;6.950;2023-04-06T09:01:14;2.63;;;1.30;;
65187;SDS011;51775;51.148;6.950;2023-04-06T09:03:42;5.20;;;1.50;;
65187;SDS011;51775;51.148;6.950;2023-04-06T09:06:09;3.22;;;1.40;;
65187;SDS011;51775;51.148;6.950;2023-04-06T09:08:37;7.68;;;1.60;;
65187;SDS011;51775;51.148;6.950;2023-04-06T09:11:04;3.13;;;1.30;;
65187;SDS011;51775;51.148;6.950;2023-04-06T09:13:31;3.38;;;1.70;;
65187;SDS011;51775;51.148;6.950;2023-04-06T09:16:00;3.28;;;1.52;;
65187;SDS011;51775;51.148;6.950;2023-04-06T09:18:32;2.47;;;1.58;;
65187;SDS011;51775;51.148;6.950;2023-04-06T09:23:25;2.88;;;1.55;;
65187;SDS011;51775;51.148;6.950;2023-04-06T09:25:50;4.20;;;1.42;;
65187;SDS011;51775;51.148;6.950;2023-04-06T09:28:17;3.85;;;1.40;;
65187;SDS011;51775;51.148;6.950;2023-04-06T09:30:48;3.17;;;1.60;;
65187;SDS011;51775;51.148;6.950;2023-04-06T09:33:21;2.88;;;1.50;;
65187;SDS011;51775;51.148;6.950;2023-04-06T09:35:50;2.25;;;1.50;;
65187;SDS011;51775;51.148;6.950;2023-04-06T09:38:16;2.60;;;1.42;;
65187;SDS011;51775;51.148;6.950;2023-04-06T09:40:52;2.88;;;1.50;;
65187;SDS011;51775;51.148;6.950;2023-04-06T09:43:26;2.30;;;1.50;;
65187;SDS011;51775;51.148;6.950;2023-04-06T09:45:52;2.30;;;1.50;;
65187;SDS011;51775;51.148;6.950;2023-04-06T09:48:18;2.45;;;1.50;;
65187;SDS011;51775;51.148;6.950;2023-04-06T09:50:45;2.80;;;1.70;;
65187;SDS011;51775;51.148;6.950;2023-04-06T09:53:11;2.30;;;1.40;;
65187;SDS011;51775;51.148;6.950;2023-04-06T09:55:42;2.15;;;1.30;;
65187;SDS011;51775;51.148;6.950;2023-04-06T09:58:09;2.08;;;1.40;;
65187;SDS011;51775;51.148;6.950;2023-04-06T10:00:42;2.33;;;1.42;;
65187;SDS011;51775;51.148;6.950;2023-04-06T10:05:46;2.83;;;1.55;;
65187;SDS011;51775;51.148;6.950;2023-04-06T10:08:18;2.70;;;1.60;;
65187;SDS011;51775;51.148;6.950;2023-04-06T10:10:45;2.35;;;1.50;;
65187;SDS011;51775;51.148;6.950;2023-04-06T10:13:11;2.85;;;1.50;;
65187;SDS011;51775;51.148;6.950;2023-04-06T10:15:39;3.83;;;1.90;;
65187;SDS011;51775;51.148;6.950;2023-04-06T10:18:04;4.85;;;2.15;;
65187;SDS011;51775;51.148;6.950;2023-04-06T10:23:15;3.63;;;2.25;;
65187;SDS011;51775;51.148;6.950;2023-04-06T10:25:52;4.28;;;2.17;;
65187;SDS011;51775;51.148;6.950;2023-04-06T10:28:19;3.67;;;2.05;;
65187;SDS011;51775;51.148;6.950;2023-04-06T10:30:48;3.22;;;1.92;;
65187;SDS011;51775;51.148;6.950;2023-04-06T10:33:13;3.83;;;1.90;;
65187;SDS011;51775;51.148;6.950;2023-04-06T10:35:39;4.10;;;1.83;;
65187;SDS011;51775;51.148;6.950;2023-04-06T10:38:05;3.92;;;1.90;;
65187;SDS011;51775;51.148;6.950;2023-04-06T10:40:31;4.20;;;1.77;;
65187;SDS011;51775;51.148;6.950;2023-04-06T10:43:06;3.35;;;1.90;;
65187;SDS011;51775;51.148;6.950;2023-04-06T10:45:34;3.17;;;1.83;;
65187;SDS011;51775;51.148;6.950;2023-04-06T10:48:01;2.90;;;1.55;;
65187;SDS011;51775;51.148;6.950;2023-04-06T10:50:37;2.90;;;1.52;;
65187;SDS011;51775;51.148;6.950;2023-04-06T10:53:02;3.30;;;1.85;;
65187;SDS011;51775;51.148;6.950;2023-04-06T10:55:28;4.30;;;1.80;;
65187;SDS011;51775;51.148;6.950;2023-04-06T10:57:54;3.47;;;1.70;;
65187;SDS011;51775;51.148;6.950;2023-04-06T11:00:20;2.72;;;1.80;;
65187;SDS011;51775;51.148;6.950;2023-04-06T11:02:45;3.20;;;1.70;;
65187;SDS011;51775;51.148;6.950;2023-04-06T11:05:11;4.43;;;1.73;;
65187;SDS011;51775;51.148;6.950;2023-04-06T11:07:37;4.15;;;1.92;;
65187;SDS011;51775;51.148;6.950;2023-04-06T11:10:02;3.83;;;1.77;;
65187;SDS011;51775;51.148;6.950;2023-04-06T11:12:28;4.28;;;1.80;;
65187;SDS011;51775;51.148;6.950;2023-04-06T11:14:57;3.03;;;1.70;;
65187;SDS011;51775;51.148;6.950;2023-04-06T11:17:26;4.50;;;1.80;;
65187;SDS011;51775;51.148;6.950;2023-04-06T11:20:09;3.45;;;1.80;;
65187;SDS011;51775;51.148;6.950;2023-04-06T11:22:36;3.45;;;1.95;;
65187;SDS011;51775;51.148;6.950;2023-04-06T11:25:04;3.42;;;1.85;;
65187;SDS011;51775;51.148;6.950;2023-04-06T11:27:31;3.30;;;1.90;;
65187;SDS011;51775;51.148;6.950;2023-04-06T11:29:56;3.88;;;1.80;;
65187;SDS011;51775;51.148;6.950;2023-04-06T11:32:22;3.88;;;2.17;;
65187;SDS011;51775;51.148;6.950;2023-04-06T11:34:47;3.90;;;2.15;;
65187;SDS011;51775;51.148;6.950;2023-04-06T11:37:13;3.83;;;1.88;;
65187;SDS011;51775;51.148;6.950;2023-04-06T11:39:39;3.10;;;1.70;;
65187;SDS011;51775;51.148;6.950;2023-04-06T11:42:08;3.88;;;1.80;;
65187;SDS011;51775;51.148;6.950;2023-04-06T11:44:40;3.05;;;1.80;;
65187;SDS011;51775;51.148;6.950;2023-04-06T11:47:09;5.25;;;1.70;;
65187;SDS011;51775;51.148;6.950;2023-04-06T11:49:39;2.88;;;1.63;;
65187;SDS011;51775;51.148;6.950;2023-04-06T11:52:18;2.65;;;1.60;;
65187;SDS011;51775;51.148;6.950;2023-04-06T11:54:51;2.75;;;1.80;;
65187;SDS011;51775;51.148;6.950;2023-04-06T11:57:18;3.20;;;1.70;;
65187;SDS011;51775;51.148;6.950;2023-04-06T11:59:44;3.65;;;1.60;;
65187;SDS011;51775;51.148;6.950;2023-04-06T12:02:10;3.83;;;1.60;;
65187;SDS011;51775;51.148;6.950;2023-04-06T12:04:35;3.05;;;1.60;;
65187;SDS011;51775;51.148;6.950;2023-04-06T12:07:01;3.80;;;1.50;;
65187;SDS011;51775;51.148;6.950;2023-04-06T12:09:33;3.50;;;1.55;;
65187;SDS011;51775;51.148;6.950;2023-04-06T12:11:58;2.30;;;1.38;;
65187;SDS011;51775;51.148;6.950;2023-04-06T12:14:24;3.45;;;1.63;;
65187;SDS011;51775;51.148;6.950;2023-04-06T12:16:49;2.47;;;1.42;;
65187;SDS011;51775;51.148;6.950;2023-04-06T12:19:14;3.78;;;1.85;;
65187;SDS011;51775;51.148;6.950;2023-04-06T12:21:40;3.45;;;1.50;;
65187;SDS011;51775;51.148;6.950;2023-04-06T12:24:05;2.50;;;1.50;;
65187;SDS011;51775;51.148;6.950;2023-04-06T12:26:30;2.72;;;1.50;;
65187;SDS011;51775;51.148;6.950;2023-04-06T12:28:56;2.80;;;1.60;;
65187;SDS011;51775;51.148;6.950;2023-04-06T12:31:22;3.00;;;1.73;;
65187;SDS011;51775;51.148;6.950;2023-04-06T12:33:51;3.92;;;1.70;;
65187;SDS011;51775;51.148;6.950;2023-04-06T12:36:17;3.13;;;1.63;;
65187;SDS011;51775;51.148;6.950;2023-04-06T12:38:44;3.50;;;1.77;;
65187;SDS011;51775;51.148;6.950;2023-04-06T12:41:10;3.70;;;1.60;;
65187;SDS011;51775;51.148;6.950;2023-04-06T12:43:35;5.88;;;1.80;;
65187;SDS011;51775;51.148;6.950;2023-04-06T12:46:01;3.42;;;1.80;;
65187;SDS011;51775;51.148;6.950;2023-04-06T12:48:27;2.97;;;1.45;;
65187;SDS011;51775;51.148;6.950;2023-04-06T12:50:59;3.47;;;1.77;;
65187;SDS011;51775;51.148;6.950;2023-04-06T12:53:25;4.50;;;1.70;;
65187;SDS011;51775;51.148;6.950;2023-04-06T12:55:50;3.30;;;1.60;;
65187;SDS011;51775;51.148;6.950;2023-04-06T12:58:16;3.47;;;1.80;;
65187;SDS011;51775;51.148;6.950;2023-04-06T13:00:41;2.35;;;1.42;;
65187;SDS011;51775;51.148;6.950;2023-04-06T13:03:07;2.75;;;1.50;;
65187;SDS011;51775;51.148;6.950;2023-04-06T13:05:32;3.53;;;1.50;;
65187;SDS011;51775;51.148;6.950;2023-04-06T13:07:57;3.38;;;1.48;;
65187;SDS011;51775;51.148;6.950;2023-04-06T13:10:22;3.05;;;1.67;;
65187;SDS011;51775;51.148;6.950;2023-04-06T13:12:48;3.90;;;1.50;;
65187;SDS011;51775;51.148;6.950;2023-04-06T13:15:13;3.28;;;1.50;;
65187;SDS011;51775;51.148;6.950;2023-04-06T13:17:38;2.95;;;1.60;;
65187;SDS011;51775;51.148;6.950;2023-04-06T13:20:04;2.75;;;1.50;;
65187;SDS011;51775;51.148;6.950;2023-04-06T13:22:30;4.18;;;1.75;;
65187;SDS011;51775;51.148;6.950;2023-04-06T13:24:55;3.00;;;1.48;;
65187;SDS011;51775;51.148;6.950;2023-04-06T13:27:21;2.30;;;1.40;;
65187;SDS011;51775;51.148;6.950;2023-04-06T13:29:46;2.70;;;1.60;;
65187;SDS011;51775;51.148;6.950;2023-04-06T13:32:11;2.72;;;1.40;;
65187;SDS011;51775;51.148;6.950;2023-04-06T13:34:36;2.63;;;1.40;;
65187;SDS011;51775;51.148;6.950;2023-04-06T13:37:02;3.10;;;1.30;;
65187;SDS011;51775;51.148;6.950;2023-04-06T13:39:27;1.95;;;1.10;;
65187;SDS011;51775;51.148;6.950;2023-04-06T13:41:55;3.22;;;1.23;;
65187;SDS011;51775;51.148;6.950;2023-04-06T13:44:21;2.88;;;1.10;;
65187;SDS011;51775;51.148;6.950;2023-04-06T13:46:46;2.38;;;1.30;;
65187;SDS011;51775;51.148;6.950;2023-04-06T13:49:13;2.20;;;1.20;;
65187;SDS011;51775;51.148;6.950;2023-04-06T13:51:41;2.88;;;1.40;;
65187;SDS011;51775;51.148;6.950;2023-04-06T13:54:06;5.40;;;1.30;;
65187;SDS011;51775;51.148;6.950;2023-04-06T13:56:31;2.08;;;1.02;;
65187;SDS011;51775;51.148;6.950;2023-04-06T13:58:57;2.30;;;1.13;;
65187;SDS011;51775;51.148;6.950;2023-04-06T14:01:22;2.10;;;1.17;;
65187;SDS011;51775;51.148;6.950;2023-04-06T14:03:50;1.70;;;1.20;;
65187;SDS011;51775;51.148;6.950;2023-04-06T14:06:16;2.28;;;1.10;;
65187;SDS011;51775;51.148;6.950;2023-04-06T14:08:41;1.88;;;1.15;;
65187;SDS011;51775;51.148;6.950;2023-04-06T14:11:10;1.85;;;1.20;;
65187;SDS011;51775;51.148;6.950;2023-04-06T14:13:38;2.00;;;1.10;;
65187;SDS011;51775;51.148;6.950;2023-04-06T14:16:04;2.17;;;1.13;;
65187;SDS011;51775;51.148;6.950;2023-04-06T14:18:29;2.38;;;1.20;;
65187;SDS011;51775;51.148;6.950;2023-04-06T14:20:55;1.90;;;1.10;;
65187;SDS011;51775;51.148;6.950;2023-04-06T14:23:20;2.15;;;1.15;;
65187;SDS011;51775;51.148;6.950;2023-04-06T14:25:46;3.20;;;1.20;;
65187;SDS011;51775;51.148;6.950;2023-04-06T14:28:11;1.90;;;1.10;;
65187;SDS011;51775;51.148;6.950;2023-04-06T14:30:36;2.55;;;1.13;;
65187;SDS011;51775;51.148;6.950;2023-04-06T14:33:01;1.77;;;1.05;;
65187;SDS011;51775;51.148;6.950;2023-04-06T14:35:27;2.15;;;1.05;;
65187;SDS011;51775;51.148;6.950;2023-04-06T14:37:52;1.73;;;1.05;;
65187;SDS011;51775;51.148;6.950;2023-04-06T14:40:17;1.92;;;1.20;;
65187;SDS011;51775;51.148;6.950;2023-04-06T14:42:43;1.73;;;1.10;;
65187;SDS011;51775;51.148;6.950;2023-04-06T14:45:08;2.20;;;1.20;;
65187;SDS011;51775;51.148;6.950;2023-04-06T14:47:33;2.85;;;1.08;;
65187;SDS011;51775;51.148;6.950;2023-04-06T14:49:59;2.50;;;1.23;;